Locust Fork, Alabama
Current Conditions -  °F | °C
As of 5:53 PM on Saturday 22 Nov 2014 (Local Time) from KBHM Reporting Station
Overcast Overcast  
Wind Chill: 63°   Ceiling: 3600
Heat Index: 63°   Visibility: 10mi
Dew Point: 47°   Wind: 6mph
Humidity: 56%   Direction: 110°ESE
Pressure: 30.17"   Gusts: NA
Location:  33.91°N, 86.62°W
Report Text: KBHM 222353Z 11005KT 10SM OVC036 17/08 A3017 RMK AO2 SLP216 T01720083 10200 20172 56010
Loading
Personal Weather Stations






























Interactive Weather Map New forecast layout! Learn more

10-Day Weather Forecast

Advertisements
Track Severe Weather on mobile